createdAt,value
2018-11-04T00:00:28.494Z,4.10
2018-11-04T00:02:56.780Z,4.10
2018-11-04T00:05:25.084Z,4.10
2018-11-04T00:07:53.686Z,4.10
2018-11-04T00:10:21.890Z,4.00
2018-11-04T00:12:50.255Z,4.00
2018-11-04T00:15:18.492Z,4.00
2018-11-04T00:17:46.767Z,4.00
2018-11-04T00:20:15.647Z,4.00
2018-11-04T00:22:43.871Z,4.00
2018-11-04T00:25:13.340Z,3.90
2018-11-04T00:27:41.772Z,4.00
2018-11-04T00:30:12.853Z,4.00
2018-11-04T00:32:41.743Z,3.90
2018-11-04T00:35:10.030Z,3.90
2018-11-04T00:37:38.632Z,3.90
2018-11-04T00:40:07.624Z,3.90
2018-11-04T00:42:35.952Z,3.90
2018-11-04T00:45:04.549Z,3.80
2018-11-04T00:47:32.856Z,3.80
2018-11-04T00:50:01.137Z,3.80
2018-11-04T00:52:29.406Z,3.80
2018-11-04T00:54:57.640Z,3.80
2018-11-04T00:57:25.864Z,3.80
2018-11-04T00:59:54.175Z,3.80
2018-11-04T01:02:22.425Z,3.80
2018-11-04T01:04:50.696Z,3.70
2018-11-04T01:07:19.215Z,3.70
2018-11-04T01:09:47.478Z,3.70
2018-11-04T01:12:15.693Z,3.70
2018-11-04T01:14:43.951Z,3.70
2018-11-04T01:17:12.192Z,3.70
2018-11-04T01:19:40.431Z,3.70
2018-11-04T01:22:09.228Z,3.70
2018-11-04T01:24:37.585Z,3.70
2018-11-04T01:27:06.049Z,3.60
2018-11-04T01:29:34.322Z,3.60
2018-11-04T01:32:02.612Z,3.60
2018-11-04T01:34:30.852Z,3.60
2018-11-04T01:36:59.100Z,3.60
2018-11-04T01:39:27.428Z,3.60
2018-11-04T01:41:55.699Z,3.60
2018-11-04T01:44:23.963Z,3.60
2018-11-04T01:46:52.221Z,3.60
2018-11-04T01:49:20.489Z,3.60
2018-11-04T01:51:48.737Z,3.60
2018-11-04T01:54:16.987Z,3.50
2018-11-04T01:56:45.451Z,3.50
2018-11-04T01:59:13.720Z,3.60
2018-11-04T02:01:41.966Z,3.50
2018-11-04T02:04:10.249Z,3.60
2018-11-04T02:06:38.592Z,3.50
2018-11-04T02:09:13.880Z,3.50
2018-11-04T02:11:42.132Z,3.50
2018-11-04T02:14:10.449Z,3.50
2018-11-04T02:16:38.706Z,3.50
2018-11-04T02:19:06.994Z,3.60
2018-11-04T02:21:49.954Z,3.50
2018-11-04T02:24:18.249Z,3.60
2018-11-04T02:26:46.691Z,3.50
2018-11-04T02:29:14.951Z,3.60
2018-11-04T02:31:43.194Z,3.60
2018-11-04T02:34:11.469Z,3.60
2018-11-04T02:36:39.722Z,3.60
2018-11-04T02:39:08.400Z,3.60
2018-11-04T02:41:36.759Z,3.60
2018-11-04T02:44:05.059Z,3.60
2018-11-04T02:46:33.344Z,3.60
2018-11-04T02:49:01.645Z,3.60
2018-11-04T02:51:30.084Z,3.60
2018-11-04T02:53:58.343Z,3.60
2018-11-04T02:56:26.614Z,3.60
2018-11-04T02:58:55.221Z,3.60
2018-11-04T03:01:23.560Z,3.60
2018-11-04T03:03:51.812Z,3.60
2018-11-04T03:06:20.082Z,3.60
2018-11-04T03:08:48.896Z,3.60
2018-11-04T03:11:17.148Z,3.60
2018-11-04T03:13:45.405Z,3.60
2018-11-04T03:16:13.680Z,3.60
2018-11-04T03:18:41.955Z,3.60
2018-11-04T03:21:10.200Z,3.60
2018-11-04T03:23:38.444Z,3.60
2018-11-04T03:26:06.705Z,3.60
2018-11-04T03:28:34.966Z,3.60
2018-11-04T03:31:03.223Z,3.60
2018-11-04T03:33:31.512Z,3.60
2018-11-04T03:35:59.755Z,3.60
2018-11-04T03:38:28.013Z,3.60
2018-11-04T03:40:56.295Z,3.60
2018-11-04T03:43:24.750Z,3.60
2018-11-04T03:45:53.020Z,3.60
2018-11-04T03:48:21.294Z,3.60
2018-11-04T03:50:49.558Z,3.60
2018-11-04T03:53:17.901Z,3.60
2018-11-04T03:55:46.152Z,3.60
2018-11-04T03:58:14.428Z,3.60
2018-11-04T04:00:42.677Z,3.60
2018-11-04T04:03:11.005Z,3.60
2018-11-04T04:05:39.259Z,3.60
2018-11-04T04:08:07.761Z,3.60
2018-11-04T04:10:35.986Z,3.60
2018-11-04T04:13:04.243Z,3.60
2018-11-04T04:15:32.549Z,3.60
2018-11-04T04:18:00.811Z,3.60
2018-11-04T04:20:29.102Z,3.60
2018-11-04T04:22:57.356Z,3.60
2018-11-04T04:25:25.643Z,3.60
2018-11-04T04:27:53.915Z,3.60
2018-11-04T04:30:22.195Z,3.60
2018-11-04T04:32:50.460Z,3.60
2018-11-04T04:35:18.698Z,3.50
2018-11-04T04:37:47.061Z,3.50
2018-11-04T04:40:15.303Z,3.60
2018-11-04T04:42:43.583Z,3.60
2018-11-04T04:45:11.882Z,3.60
2018-11-04T04:47:40.143Z,3.50
2018-11-04T04:50:08.476Z,3.50
2018-11-04T04:52:36.736Z,3.50
2018-11-04T04:55:05.331Z,3.50
2018-11-04T04:57:33.624Z,3.50
2018-11-04T05:00:01.886Z,3.50
2018-11-04T05:02:30.176Z,3.50
2018-11-04T05:04:58.475Z,3.50
2018-11-04T05:07:26.857Z,3.50
2018-11-04T05:09:55.151Z,3.50
2018-11-04T05:12:23.429Z,3.50
2018-11-04T05:14:51.958Z,3.40
2018-11-04T05:17:20.184Z,3.40
2018-11-04T05:19:48.466Z,3.40
2018-11-04T05:22:16.731Z,3.40
2018-11-04T05:24:45.160Z,3.40
2018-11-04T05:27:13.419Z,3.40
2018-11-04T05:29:41.708Z,3.30
2018-11-04T05:32:09.947Z,3.30
2018-11-04T05:34:38.219Z,3.30
2018-11-04T05:37:06.469Z,3.30
2018-11-04T05:39:34.774Z,3.30
2018-11-04T05:42:03.324Z,3.30
2018-11-04T05:44:31.608Z,3.30
2018-11-04T05:46:59.896Z,3.20
2018-11-04T05:49:28.181Z,3.20
2018-11-04T05:51:56.464Z,3.20
2018-11-04T05:54:24.718Z,3.20
2018-11-04T05:56:52.976Z,3.20
2018-11-04T05:59:21.256Z,3.20
2018-11-04T06:01:49.540Z,3.20
2018-11-04T06:04:17.815Z,3.10
2018-11-04T06:06:46.303Z,3.10
2018-11-04T06:09:14.567Z,3.10
2018-11-04T06:11:42.810Z,3.10
2018-11-04T06:14:11.131Z,3.10
2018-11-04T06:16:39.415Z,3.10
2018-11-04T06:19:07.703Z,3.00
2018-11-04T06:21:35.983Z,3.00
2018-11-04T06:24:04.252Z,3.00
2018-11-04T06:26:32.564Z,3.00
2018-11-04T06:29:00.851Z,3.00
2018-11-04T06:31:29.107Z,2.90
2018-11-04T06:33:57.389Z,2.90
2018-11-04T06:36:25.642Z,2.90
2018-11-04T06:38:55.211Z,2.90
2018-11-04T06:41:23.474Z,2.90
2018-11-04T06:43:51.912Z,2.90
2018-11-04T06:46:20.178Z,2.90
2018-11-04T06:48:49.311Z,2.90
2018-11-04T06:51:17.569Z,2.90
2018-11-04T06:53:45.869Z,2.90
2018-11-04T06:56:14.165Z,2.90
2018-11-04T06:58:51.064Z,2.90
2018-11-04T07:01:19.390Z,2.80
2018-11-04T07:03:59.033Z,2.90
2018-11-04T07:06:27.345Z,2.80
2018-11-04T07:08:55.900Z,2.80
2018-11-04T07:11:24.115Z,2.80
2018-11-04T07:13:52.488Z,2.80
2018-11-04T07:16:20.766Z,2.80
2018-11-04T07:18:49.083Z,2.80
2018-11-04T07:21:17.423Z,2.70
2018-11-04T07:23:45.751Z,2.80
2018-11-04T07:26:14.166Z,2.80
2018-11-04T07:28:42.451Z,2.70
2018-11-04T07:31:11.298Z,2.80
2018-11-04T07:33:39.662Z,2.70
2018-11-04T07:36:07.989Z,2.70
2018-11-04T07:38:36.274Z,2.70
2018-11-04T07:41:06.438Z,2.80
2018-11-04T07:43:34.784Z,2.70
2018-11-04T07:46:03.040Z,2.70
2018-11-04T07:48:31.363Z,2.70
2018-11-04T07:50:59.605Z,2.80
2018-11-04T07:53:27.945Z,2.80
2018-11-04T07:55:56.237Z,2.80
2018-11-04T07:58:24.512Z,2.80
2018-11-04T08:00:52.820Z,2.80
2018-11-04T08:03:35.822Z,2.80
2018-11-04T08:06:04.061Z,2.80
2018-11-04T08:08:32.501Z,2.80
2018-11-04T08:11:00.752Z,2.80
2018-11-04T08:13:29.119Z,2.80
2018-11-04T08:15:57.491Z,2.80
2018-11-04T08:18:25.752Z,2.80
2018-11-04T08:20:54.052Z,2.80
2018-11-04T08:23:22.341Z,2.90
2018-11-04T08:25:50.604Z,2.90
2018-11-04T08:28:18.905Z,2.90
2018-11-04T08:30:47.152Z,2.90
2018-11-04T08:33:15.423Z,2.90
2018-11-04T08:35:43.732Z,2.90
2018-11-04T08:38:12.083Z,2.90
2018-11-04T08:40:40.341Z,2.90
2018-11-04T08:43:08.640Z,2.90
2018-11-04T08:45:36.995Z,3.00
2018-11-04T08:48:05.318Z,3.00
2018-11-04T08:50:33.577Z,3.00
2018-11-04T08:53:01.824Z,3.00
2018-11-04T08:55:30.131Z,3.00
2018-11-04T08:57:58.377Z,3.00
2018-11-04T09:00:26.733Z,3.10
2018-11-04T09:02:54.979Z,3.10
2018-11-04T09:05:23.216Z,3.10
2018-11-04T09:07:51.465Z,3.10
2018-11-04T09:10:19.788Z,3.20
2018-11-04T09:12:48.140Z,3.20
2018-11-04T09:15:16.374Z,3.30
2018-11-04T09:17:44.668Z,3.30
2018-11-04T09:20:14.303Z,3.30
2018-11-04T09:22:43.521Z,3.40
2018-11-04T09:25:12.352Z,3.40
2018-11-04T09:27:40.618Z,3.40
2018-11-04T09:30:11.261Z,3.50
2018-11-04T09:32:40.303Z,3.50
2018-11-04T09:35:09.682Z,3.60
2018-11-04T09:37:37.709Z,3.60
2018-11-04T09:40:07.462Z,3.70
2018-11-04T09:42:35.768Z,3.70
2018-11-04T09:45:04.595Z,3.80
2018-11-04T09:47:42.786Z,3.90
2018-11-04T09:50:11.991Z,3.90
2018-11-04T09:52:41.208Z,4.00
2018-11-04T09:55:10.859Z,4.00
2018-11-04T09:57:39.235Z,4.10
2018-11-04T10:00:08.931Z,4.10
2018-11-04T10:02:38.377Z,4.20
2018-11-04T10:05:11.555Z,4.30
2018-11-04T10:07:41.990Z,4.30
2018-11-04T10:10:25.668Z,4.50
2018-11-04T10:12:57.427Z,4.50
2018-11-04T10:15:27.946Z,4.60
2018-11-04T10:17:58.683Z,4.70
2018-11-04T10:20:27.804Z,4.80
2018-11-04T10:22:57.990Z,4.90
2018-11-04T10:25:28.664Z,5.00
2018-11-04T10:27:58.902Z,5.10
2018-11-04T10:30:29.730Z,5.20
2018-11-04T10:33:01.920Z,5.30
2018-11-04T10:35:32.194Z,5.40
2018-11-04T10:38:02.965Z,5.50
2018-11-04T10:40:33.450Z,5.60
2018-11-04T10:43:03.530Z,5.80
2018-11-04T10:45:34.325Z,5.80
2018-11-04T10:48:18.846Z,6.00
2018-11-04T10:50:47.101Z,6.10
2018-11-04T10:53:15.364Z,6.10
2018-11-04T10:55:43.630Z,6.20
2018-11-04T10:58:12.604Z,6.30
2018-11-04T11:00:46.468Z,6.40
2018-11-04T11:03:15.173Z,6.50
2018-11-04T11:05:43.734Z,6.60
2018-11-04T11:08:14.760Z,6.70
2018-11-04T11:10:45.920Z,6.70
2018-11-04T11:13:20.173Z,6.80
2018-11-04T11:15:50.840Z,6.90
2018-11-04T11:18:22.047Z,7.00
2018-11-04T11:20:52.391Z,7.10
2018-11-04T11:23:23.059Z,7.20
2018-11-04T11:25:51.681Z,7.30
2018-11-04T11:28:20.164Z,7.30
2018-11-04T11:30:48.833Z,7.40
2018-11-04T11:33:17.052Z,7.50
2018-11-04T11:35:45.603Z,7.60
2018-11-04T11:38:14.292Z,7.60
2018-11-04T11:40:42.718Z,7.70
2018-11-04T11:43:11.183Z,7.80
2018-11-04T11:45:39.438Z,7.90
2018-11-04T11:48:08.229Z,7.90
2018-11-04T11:50:36.554Z,8.00
2018-11-04T11:53:05.098Z,8.00
2018-11-04T11:55:33.275Z,8.10
2018-11-04T11:58:01.560Z,8.20
2018-11-04T12:00:29.909Z,8.20
2018-11-04T12:02:58.129Z,8.30
2018-11-04T12:05:26.377Z,8.30
2018-11-04T12:07:54.611Z,8.40
2018-11-04T12:10:22.904Z,8.50
2018-11-04T12:12:51.233Z,8.50
2018-11-04T12:15:19.527Z,8.60
2018-11-04T12:17:47.839Z,8.60
2018-11-04T12:20:16.052Z,8.70
2018-11-04T12:22:44.393Z,8.70
2018-11-04T12:25:13.277Z,8.80
2018-11-04T12:27:41.769Z,8.80
2018-11-04T12:30:11.564Z,8.90
2018-11-04T12:32:40.042Z,8.90
2018-11-04T12:35:09.279Z,9.00
2018-11-04T12:37:37.451Z,9.00
2018-11-04T12:40:07.604Z,9.10
2018-11-04T12:42:35.869Z,9.10
2018-11-04T12:45:04.399Z,9.20
2018-11-04T12:47:32.631Z,9.20
2018-11-04T12:50:00.876Z,9.30
2018-11-04T12:52:29.117Z,9.30
2018-11-04T12:54:57.384Z,9.40
2018-11-04T12:57:25.751Z,9.40
2018-11-04T13:00:04.395Z,9.50
2018-11-04T13:02:41.881Z,9.50
2018-11-04T13:05:15.692Z,9.60
2018-11-04T13:07:49.996Z,9.60
2018-11-04T13:10:19.257Z,9.70
2018-11-04T13:12:53.104Z,9.70
2018-11-04T13:15:26.367Z,9.70
2018-11-04T13:18:00.874Z,9.80
2018-11-04T13:20:35.512Z,9.90
2018-11-04T13:23:06.273Z,9.90
2018-11-04T13:25:36.653Z,9.90
2018-11-04T13:28:07.354Z,10.00
2018-11-04T13:30:38.332Z,10.00
2018-11-04T13:33:10.242Z,10.10
2018-11-04T13:35:38.490Z,10.10
2018-11-04T13:38:06.720Z,10.10
2018-11-04T13:40:34.989Z,10.20
2018-11-04T13:43:03.266Z,10.20
2018-11-04T13:45:31.468Z,10.20
2018-11-04T13:47:59.696Z,10.30
2018-11-04T13:50:27.923Z,10.30
2018-11-04T13:52:56.327Z,10.30
2018-11-04T13:55:24.578Z,10.40
2018-11-04T13:57:52.843Z,10.40
2018-11-04T14:00:21.101Z,10.40
2018-11-04T14:02:49.928Z,10.50
2018-11-04T14:05:18.136Z,10.50
2018-11-04T14:07:46.392Z,10.50
2018-11-04T14:10:15.809Z,10.50
2018-11-04T14:12:44.645Z,10.60
2018-11-04T14:15:13.388Z,10.60
2018-11-04T14:17:41.685Z,10.60
2018-11-04T14:20:10.861Z,10.60
2018-11-04T14:22:40.317Z,10.70
2018-11-04T14:25:09.361Z,10.70
2018-11-04T14:27:37.825Z,10.70
2018-11-04T14:30:08.357Z,10.70
2018-11-04T14:32:36.631Z,10.80
2018-11-04T14:35:06.250Z,10.80
2018-11-04T14:37:34.481Z,10.80
2018-11-04T14:40:02.724Z,10.80
2018-11-04T14:42:30.980Z,10.80
2018-11-04T14:44:59.240Z,10.90
2018-11-04T14:47:27.472Z,10.90
2018-11-04T14:49:55.733Z,10.90
2018-11-04T14:52:24.076Z,10.90
2018-11-04T14:54:52.323Z,10.90
2018-11-04T14:57:20.562Z,10.90
2018-11-04T14:59:48.885Z,10.90
2018-11-04T15:02:17.069Z,10.90
2018-11-04T15:04:45.302Z,10.90
2018-11-04T15:07:13.543Z,10.90
2018-11-04T15:09:41.779Z,10.90
2018-11-04T15:12:10.033Z,10.90
2018-11-04T15:14:38.269Z,10.90
2018-11-04T15:17:06.689Z,10.90
2018-11-04T15:19:34.966Z,10.90
2018-11-04T15:22:03.232Z,10.90
2018-11-04T15:24:31.482Z,10.90
2018-11-04T15:26:59.708Z,10.90
2018-11-04T15:29:27.977Z,10.90
2018-11-04T15:31:56.245Z,10.80
2018-11-04T15:34:24.642Z,10.80
2018-11-04T15:36:52.727Z,10.80
2018-11-04T15:39:20.977Z,10.80
2018-11-04T15:41:49.247Z,10.80
2018-11-04T15:44:17.489Z,10.80
2018-11-04T15:46:45.715Z,10.70
2018-11-04T15:49:14.345Z,10.70
2018-11-04T15:51:42.474Z,10.70
2018-11-04T15:54:10.737Z,10.60
2018-11-04T15:56:38.987Z,10.60
2018-11-04T15:59:07.208Z,10.60
2018-11-04T16:01:35.452Z,10.50
2018-11-04T16:04:03.720Z,10.50
2018-11-04T16:06:31.968Z,10.50
2018-11-04T16:09:00.196Z,10.40
2018-11-04T16:11:28.436Z,10.40
2018-11-04T16:13:56.686Z,10.30
2018-11-04T16:16:25.052Z,10.30
2018-11-04T16:18:53.407Z,10.20
2018-11-04T16:21:21.552Z,10.20
2018-11-04T16:23:49.823Z,10.10
2018-11-04T16:26:18.083Z,10.10
2018-11-04T16:28:46.545Z,10.00
2018-11-04T16:31:15.008Z,10.00
2018-11-04T16:33:43.243Z,9.90
2018-11-04T16:36:11.487Z,9.90
2018-11-04T16:38:39.708Z,9.80
2018-11-04T16:41:07.936Z,9.80
2018-11-04T16:43:36.389Z,9.70
2018-11-04T16:46:04.773Z,9.60
2018-11-04T16:48:33.015Z,9.60
2018-11-04T16:51:02.367Z,9.50
2018-11-04T16:53:30.664Z,9.50
2018-11-04T16:55:58.950Z,9.40
2018-11-04T16:58:27.120Z,9.40
2018-11-04T17:00:55.363Z,9.30
2018-11-04T17:03:23.632Z,9.30
2018-11-04T17:05:51.918Z,9.20
2018-11-04T17:08:25.842Z,9.20
2018-11-04T17:10:59.812Z,9.20
2018-11-04T17:13:30.362Z,9.10
2018-11-04T17:16:00.992Z,9.00
2018-11-04T17:18:31.288Z,9.00
2018-11-04T17:21:01.723Z,8.90
2018-11-04T17:23:31.220Z,8.80
2018-11-04T17:26:01.144Z,8.80
2018-11-04T17:28:31.617Z,8.80
2018-11-04T17:31:01.173Z,8.70
2018-11-04T17:33:32.896Z,8.70
2018-11-04T17:36:04.469Z,8.60
2018-11-04T17:38:34.011Z,8.50
2018-11-04T17:41:04.015Z,8.50
2018-11-04T17:43:33.009Z,8.50
2018-11-04T17:46:03.145Z,8.50
2018-11-04T17:48:34.097Z,8.40
2018-11-04T17:51:04.771Z,8.30
2018-11-04T17:53:42.403Z,8.30
2018-11-04T17:56:13.080Z,8.30
2018-11-04T17:58:44.850Z,8.20
2018-11-04T18:01:15.722Z,8.20
2018-11-04T18:03:43.944Z,8.10
2018-11-04T18:06:12.191Z,8.10
2018-11-04T18:08:40.452Z,8.10
2018-11-04T18:11:08.727Z,8.10
2018-11-04T18:13:37.068Z,8.10
2018-11-04T18:16:05.308Z,8.00
2018-11-04T18:18:33.779Z,8.00
2018-11-04T18:21:02.068Z,7.90
2018-11-04T18:23:30.310Z,7.90
2018-11-04T18:25:58.625Z,7.90
2018-11-04T18:28:26.860Z,7.90
2018-11-04T18:30:55.120Z,7.80
2018-11-04T18:33:23.368Z,7.80
2018-11-04T18:35:51.692Z,7.80
2018-11-04T18:38:19.945Z,7.80
2018-11-04T18:40:48.380Z,7.70
2018-11-04T18:43:16.624Z,7.70
2018-11-04T18:45:44.879Z,7.70
2018-11-04T18:48:13.123Z,7.70
2018-11-04T18:50:41.494Z,7.60
2018-11-04T18:53:09.691Z,7.60
2018-11-04T18:55:37.967Z,7.60
2018-11-04T18:58:06.443Z,7.60
2018-11-04T19:00:34.769Z,7.60
2018-11-04T19:03:03.051Z,7.60
2018-11-04T19:05:31.406Z,7.50
2018-11-04T19:07:59.545Z,7.50
2018-11-04T19:10:27.830Z,7.50
2018-11-04T19:12:56.168Z,7.50
2018-11-04T19:15:24.586Z,7.40
2018-11-04T19:17:52.848Z,7.40
2018-11-04T19:20:21.124Z,7.40
2018-11-04T19:22:52.361Z,7.40
2018-11-04T19:25:34.568Z,7.30
2018-11-04T19:28:02.808Z,7.30
2018-11-04T19:30:31.043Z,7.30
2018-11-04T19:32:59.298Z,7.30
2018-11-04T19:35:27.548Z,7.20
2018-11-04T19:37:55.797Z,7.20
2018-11-04T19:40:24.073Z,7.20
2018-11-04T19:42:52.362Z,7.20
2018-11-04T19:45:20.692Z,7.10
2018-11-04T19:47:48.972Z,7.10
2018-11-04T19:50:17.213Z,7.10
2018-11-04T19:52:45.461Z,7.00
2018-11-04T19:55:13.931Z,7.00
2018-11-04T19:57:42.176Z,7.00
2018-11-04T20:00:12.537Z,7.00
2018-11-04T20:02:40.810Z,7.00
2018-11-04T20:05:10.186Z,6.90
2018-11-04T20:07:38.396Z,6.90
2018-11-04T20:10:10.745Z,6.90
2018-11-04T20:12:44.434Z,6.90
2018-11-04T20:15:12.748Z,6.90
2018-11-04T20:17:41.021Z,6.90
2018-11-04T20:20:11.438Z,6.90
2018-11-04T20:22:39.985Z,6.90
2018-11-04T20:25:13.831Z,6.90
2018-11-04T20:27:42.373Z,6.90
2018-11-04T20:30:12.644Z,6.80
2018-11-04T20:32:46.304Z,6.80
2018-11-04T20:35:24.116Z,6.80
2018-11-04T20:37:52.395Z,6.80
2018-11-04T20:40:26.045Z,6.80
2018-11-04T20:42:54.329Z,6.80
2018-11-04T20:45:22.590Z,6.80
2018-11-04T20:47:56.108Z,6.80
2018-11-04T20:50:29.720Z,6.70
2018-11-04T20:52:57.949Z,6.70
2018-11-04T20:55:31.595Z,6.70
2018-11-04T20:57:59.934Z,6.70
2018-11-04T21:00:28.164Z,6.70
2018-11-04T21:02:56.764Z,6.70
2018-11-04T21:05:25.029Z,6.70
2018-11-04T21:07:53.496Z,6.70
2018-11-04T21:10:21.760Z,6.70
2018-11-04T21:12:50.057Z,6.70
2018-11-04T21:15:18.316Z,6.70
2018-11-04T21:17:46.569Z,6.70
2018-11-04T21:20:14.831Z,6.70
2018-11-04T21:22:43.095Z,6.60
2018-11-04T21:25:11.406Z,6.60
2018-11-04T21:27:39.609Z,6.60
2018-11-04T21:30:09.725Z,6.60
2018-11-04T21:32:38.033Z,6.60
2018-11-04T21:35:07.400Z,6.60
2018-11-04T21:37:35.685Z,6.60
2018-11-04T21:40:04.308Z,6.60
2018-11-04T21:42:32.739Z,6.60
2018-11-04T21:45:00.861Z,6.50
2018-11-04T21:47:29.096Z,6.50
2018-11-04T21:49:57.373Z,6.50
2018-11-04T21:52:25.609Z,6.50
2018-11-04T21:54:54.067Z,6.50
2018-11-04T21:57:22.304Z,6.50
2018-11-04T21:59:50.564Z,6.50
2018-11-04T22:02:18.870Z,6.50
2018-11-04T22:04:47.274Z,6.50
2018-11-04T22:07:15.423Z,6.50
2018-11-04T22:09:43.692Z,6.50
2018-11-04T22:12:11.916Z,6.50
2018-11-04T22:14:40.158Z,6.40
2018-11-04T22:17:08.499Z,6.40
2018-11-04T22:19:36.845Z,6.40
2018-11-04T22:22:05.099Z,6.40
2018-11-04T22:24:33.352Z,6.40
2018-11-04T22:27:01.590Z,6.40
2018-11-04T22:29:29.825Z,6.40
2018-11-04T22:31:58.080Z,6.40
2018-11-04T22:34:26.345Z,6.30
2018-11-04T22:36:54.610Z,6.30
2018-11-04T22:39:22.849Z,6.30
2018-11-04T22:41:51.127Z,6.30
2018-11-04T22:44:19.423Z,6.30
2018-11-04T22:46:47.791Z,6.30
2018-11-04T22:49:16.060Z,6.30
2018-11-04T22:51:44.306Z,6.30
2018-11-04T22:54:12.626Z,6.30
2018-11-04T22:56:41.171Z,6.20
2018-11-04T22:59:09.400Z,6.20
2018-11-04T23:01:37.823Z,6.20
2018-11-04T23:04:06.204Z,6.20
2018-11-04T23:06:34.466Z,6.20
2018-11-04T23:09:03.000Z,6.20
2018-11-04T23:11:31.283Z,6.20
2018-11-04T23:13:59.581Z,6.20
2018-11-04T23:16:27.817Z,6.20
2018-11-04T23:18:56.091Z,6.10
2018-11-04T23:21:24.348Z,6.10
2018-11-04T23:23:52.636Z,6.10
2018-11-04T23:26:20.931Z,6.10
2018-11-04T23:28:49.251Z,6.10
2018-11-04T23:31:17.549Z,6.10
2018-11-04T23:33:45.789Z,6.10
2018-11-04T23:36:14.063Z,6.10
2018-11-04T23:38:42.374Z,6.10
2018-11-04T23:41:10.711Z,6.10
2018-11-04T23:43:39.005Z,6.10
2018-11-04T23:46:07.408Z,6.00
2018-11-04T23:48:35.703Z,6.10
2018-11-04T23:51:03.960Z,6.10
2018-11-04T23:53:32.265Z,6.10
2018-11-04T23:56:00.565Z,6.10
2018-11-04T23:58:28.839Z,6.10
